createdAt,value
2023-04-23T00:00:54.864Z,100633.41
2023-04-23T00:04:01.037Z,100640.03
2023-04-23T00:07:05.285Z,100637.41
2023-04-23T00:10:11.095Z,100637.63
2023-04-23T00:13:15.237Z,100641.53
2023-04-23T00:16:21.994Z,100640.22
2023-04-23T00:19:27.175Z,100642.84
2023-04-23T00:22:30.877Z,100636.28
2023-04-23T00:25:34.468Z,100645.00
2023-04-23T00:28:38.207Z,100642.59
2023-04-23T00:31:41.988Z,100657.25
2023-04-23T00:34:48.789Z,100654.03
2023-04-23T00:37:52.269Z,100656.81
2023-04-23T00:40:55.964Z,100659.63
2023-04-23T00:43:59.974Z,100663.66
2023-04-23T00:47:04.043Z,100662.19
2023-04-23T00:50:10.247Z,100666.59
2023-04-23T00:53:14.642Z,100671.34
2023-04-23T00:56:19.725Z,100674.28
2023-04-23T00:59:23.642Z,100665.34
2023-04-23T01:02:30.603Z,100672.63
2023-04-23T01:05:35.668Z,100673.84
2023-04-23T01:08:44.202Z,100668.22
2023-04-23T01:11:51.830Z,100666.41
2023-04-23T01:14:55.743Z,100662.13
2023-04-23T01:17:59.743Z,100657.06
2023-04-23T01:21:05.541Z,100658.94
2023-04-23T01:24:12.037Z,100664.59
2023-04-23T01:27:16.149Z,100666.47
2023-04-23T01:30:20.816Z,100665.41
2023-04-23T01:33:24.979Z,100669.56
2023-04-23T01:36:28.699Z,100673.13
2023-04-23T01:39:33.681Z,100681.25
2023-04-23T01:42:37.557Z,100682.41
2023-04-23T01:45:42.184Z,100678.38
2023-04-23T01:48:45.928Z,100689.50
2023-04-23T01:51:49.447Z,100688.28
2023-04-23T01:54:54.394Z,100679.03
2023-04-23T01:57:57.916Z,100687.19
2023-04-23T02:01:01.441Z,100683.03
2023-04-23T02:04:05.037Z,100686.16
2023-04-23T02:07:09.031Z,100687.44
2023-04-23T02:10:14.983Z,100700.06
2023-04-23T02:13:18.491Z,100693.34
2023-04-23T02:16:24.544Z,100687.75
2023-04-23T02:19:28.239Z,100698.34
2023-04-23T02:22:31.832Z,100702.88
2023-04-23T02:25:39.344Z,100702.16
2023-04-23T02:28:42.803Z,100699.78
2023-04-23T02:31:46.432Z,100708.53
2023-04-23T02:34:49.919Z,100715.50
2023-04-23T02:37:55.340Z,100708.53
2023-04-23T02:41:00.242Z,100703.75
2023-04-23T02:44:03.751Z,100721.66
2023-04-23T02:47:07.313Z,100715.59
2023-04-23T02:50:11.405Z,100719.16
2023-04-23T02:53:14.880Z,100715.75
2023-04-23T02:56:19.807Z,100721.91
2023-04-23T02:59:23.415Z,100729.25
2023-04-23T03:02:27.075Z,100722.19
2023-04-23T03:05:30.865Z,100723.28
2023-04-23T03:08:34.448Z,100729.41
2023-04-23T03:11:39.334Z,100734.72
2023-04-23T03:14:43.593Z,100735.88
2023-04-23T03:17:47.182Z,100730.75
2023-04-23T03:20:51.319Z,100735.25
2023-04-23T03:23:55.059Z,100745.94
2023-04-23T03:27:00.181Z,100740.31
2023-04-23T03:30:03.649Z,100730.94
2023-04-23T03:33:07.290Z,100724.94
2023-04-23T03:36:11.093Z,100722.22
2023-04-23T03:39:14.576Z,100732.59
2023-04-23T03:42:19.597Z,100731.47
2023-04-23T03:45:23.278Z,100730.13
2023-04-23T03:48:27.079Z,100741.25
2023-04-23T03:51:31.688Z,100735.09
2023-04-23T03:54:35.127Z,100742.09
2023-04-23T03:57:40.053Z,100749.13
2023-04-23T04:00:43.614Z,100735.47
2023-04-23T04:03:47.447Z,100739.84
2023-04-23T04:06:51.197Z,100740.06
2023-04-23T04:09:54.776Z,100740.16
2023-04-23T04:12:59.700Z,100746.19
2023-04-23T04:16:03.280Z,100747.03
2023-04-23T04:19:08.265Z,100758.28
2023-04-23T04:22:12.051Z,100753.41
2023-04-23T04:25:15.568Z,100761.31
2023-04-23T04:28:20.516Z,100756.66
2023-04-23T04:31:24.282Z,100753.06
2023-04-23T04:34:28.105Z,100758.41
2023-04-23T04:37:32.087Z,100753.06
2023-04-23T04:40:36.574Z,100753.00
2023-04-23T04:43:43.709Z,100754.41
2023-04-23T04:46:48.159Z,100760.63
2023-04-23T04:49:51.701Z,100757.53
2023-04-23T04:52:55.218Z,100762.41
2023-04-23T04:55:58.675Z,100758.84
2023-04-23T04:59:04.774Z,100762.53
2023-04-23T05:02:08.599Z,100765.91
2023-04-23T05:05:12.166Z,100759.06
2023-04-23T05:08:16.870Z,100763.63
2023-04-23T05:11:21.762Z,100767.53
2023-04-23T05:14:27.496Z,100763.50
2023-04-23T05:17:32.184Z,100767.69
2023-04-23T05:20:35.865Z,100772.66
2023-04-23T05:23:39.516Z,100773.13
2023-04-23T05:26:43.292Z,100767.44
2023-04-23T05:29:48.558Z,100756.38
2023-04-23T05:32:52.241Z,100765.22
2023-04-23T05:35:56.056Z,100766.19
2023-04-23T05:38:59.718Z,100764.41
2023-04-23T05:42:03.832Z,100762.91
2023-04-23T05:45:10.855Z,100770.41
2023-04-23T05:48:14.470Z,100776.19
2023-04-23T05:51:18.295Z,100779.63
2023-04-23T05:54:22.342Z,100783.97
2023-04-23T05:57:26.559Z,100781.44
2023-04-23T06:00:31.582Z,100786.94
2023-04-23T06:03:37.096Z,100771.66
2023-04-23T06:06:43.830Z,100764.94
2023-04-23T06:09:47.378Z,100768.66
2023-04-23T06:12:51.273Z,100768.88
2023-04-23T06:15:56.128Z,100773.38
2023-04-23T06:18:59.668Z,100762.81
2023-04-23T06:22:03.294Z,100766.97
2023-04-23T06:25:08.140Z,100766.97
2023-04-23T06:28:11.612Z,100762.94
2023-04-23T06:31:16.745Z,100761.22
2023-04-23T06:34:20.219Z,100762.06
2023-04-23T06:37:23.892Z,100755.50
2023-04-23T06:40:27.422Z,100738.97
2023-04-23T06:43:31.278Z,100739.66
2023-04-23T06:46:36.526Z,100741.34
2023-04-23T06:49:41.901Z,100756.06
2023-04-23T06:52:45.463Z,100750.13
2023-04-23T06:55:50.641Z,100750.25
2023-04-23T06:58:54.201Z,100750.44
2023-04-23T07:01:59.294Z,100745.31
2023-04-23T07:05:02.842Z,100742.31
2023-04-23T07:08:06.408Z,100745.50
2023-04-23T07:11:11.645Z,100727.56
2023-04-23T07:14:15.417Z,100730.78
2023-04-23T07:17:21.815Z,100728.19
2023-04-23T07:20:26.230Z,100732.72
2023-04-23T07:23:29.758Z,100735.94
2023-04-23T07:26:33.408Z,100735.91
2023-04-23T07:29:37.152Z,100739.94
2023-04-23T07:32:42.057Z,100750.94
2023-04-23T07:35:45.785Z,100743.34
2023-04-23T07:38:49.760Z,100735.03
2023-04-23T07:41:53.292Z,100735.94
2023-04-23T07:44:56.776Z,100735.13
2023-04-23T07:48:02.520Z,100722.34
2023-04-23T07:51:07.012Z,100720.69
2023-04-23T07:54:11.654Z,100713.19
2023-04-23T07:57:15.523Z,100702.56
2023-04-23T08:00:19.926Z,100707.28
2023-04-23T08:03:26.056Z,100715.09
2023-04-23T08:06:31.401Z,100725.13
2023-04-23T08:09:34.964Z,100705.16
2023-04-23T08:12:38.594Z,100702.75
2023-04-23T08:15:42.250Z,100701.03
2023-04-23T08:19:03.601Z,100703.34
2023-04-23T08:22:08.180Z,100697.31
2023-04-23T08:25:13.964Z,100697.97
2023-04-23T08:28:17.503Z,100682.28
2023-04-23T08:31:26.504Z,100666.44
2023-04-23T08:34:33.979Z,100675.47
2023-04-23T08:37:40.229Z,100671.94
2023-04-23T08:40:46.385Z,100666.47
2023-04-23T08:44:01.111Z,100657.06
2023-04-23T08:47:08.699Z,100659.25
2023-04-23T08:50:16.530Z,100644.69
2023-04-23T08:53:24.540Z,100642.50
2023-04-23T08:56:29.348Z,100642.78
2023-04-23T08:59:33.365Z,100641.94
2023-04-23T09:02:37.796Z,100633.53
2023-04-23T09:05:43.593Z,100635.69
2023-04-23T09:08:47.960Z,100635.66
2023-04-23T09:11:54.088Z,100631.91
2023-04-23T09:14:58.843Z,100636.38
2023-04-23T09:18:03.644Z,100635.72
2023-04-23T09:21:08.964Z,100637.81
2023-04-23T09:24:13.001Z,100626.38
2023-04-23T09:27:26.385Z,100615.88
2023-04-23T09:30:30.778Z,100612.69
2023-04-23T09:33:37.530Z,100620.69
2023-04-23T09:36:43.406Z,100602.22
2023-04-23T09:39:47.273Z,100605.47
2023-04-23T09:42:54.398Z,100598.66
2023-04-23T09:45:58.184Z,100595.75
2023-04-23T09:49:04.035Z,100596.59
2023-04-23T09:52:09.894Z,100585.06
2023-04-23T09:55:13.521Z,100601.44
2023-04-23T09:58:17.489Z,100600.56
2023-04-23T10:01:30.728Z,100597.25
2023-04-23T10:04:35.820Z,100597.75
2023-04-23T10:07:40.958Z,100596.53
2023-04-23T10:13:56.533Z,100596.59
2023-04-23T10:17:02.563Z,100587.31
2023-04-23T10:20:08.575Z,100588.47
2023-04-23T10:23:14.820Z,100593.69
2023-04-23T10:26:21.399Z,100581.59
2023-04-23T10:29:29.903Z,100588.63
2023-04-23T10:32:35.748Z,100581.06
2023-04-23T10:35:39.732Z,100587.41
2023-04-23T10:38:57.298Z,100583.72
2023-04-23T10:42:04.132Z,100579.44
2023-04-23T10:45:24.586Z,100555.03
2023-04-23T10:48:29.812Z,100574.41
2023-04-23T10:52:14.834Z,100572.63
2023-04-23T10:55:00.959Z,100559.66
2023-04-23T10:58:08.401Z,100559.00
2023-04-23T11:01:12.884Z,100542.25
2023-04-23T11:04:24.985Z,100544.81
2023-04-23T11:07:33.811Z,100542.69
2023-04-23T11:10:56.247Z,100543.44
2023-04-23T11:14:15.501Z,100534.72
2023-04-23T11:17:23.746Z,100526.47
2023-04-23T11:20:27.313Z,100536.94
2023-04-23T11:23:33.917Z,100542.97
2023-04-23T11:26:40.680Z,100535.44
2023-04-23T11:29:47.828Z,100534.19
2023-04-23T11:32:54.633Z,100518.63
2023-04-23T11:35:58.421Z,100518.66
2023-04-23T11:39:03.897Z,100510.00
2023-04-23T11:42:11.743Z,100514.53
2023-04-23T11:45:30.786Z,100513.63
2023-04-23T11:48:36.868Z,100509.81
2023-04-23T11:51:44.981Z,100501.22
2023-04-23T11:54:48.544Z,100497.94
2023-04-23T11:57:54.130Z,100506.28
2023-04-23T12:01:00.738Z,100493.66
2023-04-23T12:04:13.395Z,100488.09
2023-04-23T12:07:25.803Z,100498.66
2023-04-23T12:10:29.676Z,100489.75
2023-04-23T12:13:35.140Z,100492.81
2023-04-23T12:16:45.795Z,100492.66
2023-04-23T12:19:50.726Z,100485.28
2023-04-23T12:22:54.348Z,100502.75
2023-04-23T12:25:58.059Z,100499.22
2023-04-23T12:29:02.985Z,100493.91
2023-04-23T12:32:06.644Z,100486.91
2023-04-23T12:35:11.473Z,100481.28
2023-04-23T12:38:25.987Z,100471.97
2023-04-23T12:41:31.154Z,100478.53
2023-04-23T12:44:39.812Z,100473.97
2023-04-23T12:47:43.663Z,100474.63
2023-04-23T12:50:49.536Z,100469.19
2023-04-23T12:53:53.067Z,100465.09
2023-04-23T12:56:56.868Z,100463.94
2023-04-23T13:00:02.405Z,100464.03
2023-04-23T13:03:06.749Z,100471.56
2023-04-23T13:06:10.654Z,100468.75
2023-04-23T13:09:15.285Z,100462.06
2023-04-23T13:12:19.901Z,100450.50
2023-04-23T13:15:35.326Z,100459.63
2023-04-23T13:18:39.576Z,100456.03
2023-04-23T13:21:44.361Z,100443.44
2023-04-23T13:24:47.915Z,100435.13
2023-04-23T13:27:51.545Z,100438.97
2023-04-23T13:30:56.939Z,100428.63
2023-04-23T13:34:01.579Z,100418.19
2023-04-23T13:37:09.383Z,100416.53
2023-04-23T13:40:14.020Z,100413.81
2023-04-23T13:43:18.039Z,100407.09
2023-04-23T13:46:23.309Z,100395.47
2023-04-23T13:49:27.070Z,100395.53
2023-04-23T13:52:31.791Z,100389.16
2023-04-23T13:55:35.709Z,100385.50
2023-04-23T13:58:42.755Z,100383.63
2023-04-23T14:01:50.141Z,100374.38
2023-04-23T14:04:54.189Z,100361.66
2023-04-23T14:07:57.990Z,100357.69
2023-04-23T14:11:01.744Z,100360.88
2023-04-23T14:14:05.369Z,100355.63
2023-04-23T14:17:10.411Z,100345.03
2023-04-23T14:20:16.237Z,100343.81
2023-04-23T14:23:51.773Z,100344.88
2023-04-23T14:26:55.549Z,100334.38
2023-04-23T14:30:06.374Z,100336.34
2023-04-23T14:33:11.296Z,100331.94
2023-04-23T14:36:14.832Z,100341.31
2023-04-23T14:39:18.593Z,100338.28
2023-04-23T14:42:22.175Z,100326.16
2023-04-23T14:45:35.158Z,100324.03
2023-04-23T14:48:40.140Z,100326.88
2023-04-23T14:51:43.895Z,100325.94
2023-04-23T14:54:47.515Z,100325.06
2023-04-23T14:57:51.358Z,100325.34
2023-04-23T15:00:55.132Z,100320.88
2023-04-23T15:04:00.228Z,100321.19
2023-04-23T15:07:03.965Z,100328.56
2023-04-23T15:10:11.685Z,100327.50
2023-04-23T15:13:45.273Z,100333.78
2023-04-23T15:16:49.969Z,100365.97
2023-04-23T15:19:56.814Z,100373.66
2023-04-23T15:23:00.337Z,100422.25
2023-04-23T15:26:03.951Z,100417.81
2023-04-23T15:29:08.924Z,100431.69
2023-04-23T15:32:12.783Z,100418.38
2023-04-23T15:35:17.854Z,100428.75
2023-04-23T15:38:21.360Z,100421.16
2023-04-23T15:41:25.402Z,100397.41
2023-04-23T15:44:29.083Z,100395.34
2023-04-23T15:47:32.771Z,100391.06
2023-04-23T15:50:37.950Z,100380.66
2023-04-23T15:53:41.456Z,100384.91
2023-04-23T15:56:45.039Z,100370.13
2023-04-23T15:59:48.646Z,100364.69
2023-04-23T16:02:52.549Z,100364.03
2023-04-23T16:05:57.711Z,100370.50
2023-04-23T16:09:02.399Z,100357.50
2023-04-23T16:12:06.304Z,100346.16
2023-04-23T16:18:16.115Z,100343.44
2023-04-23T16:21:21.291Z,100344.38
2023-04-23T16:24:24.780Z,100339.69
2023-04-23T16:27:29.464Z,100344.78
2023-04-23T16:30:33.016Z,100340.91
2023-04-23T16:33:36.592Z,100329.66
2023-04-23T16:36:41.561Z,100330.41
2023-04-23T16:39:45.189Z,100327.63
2023-04-23T16:42:49.724Z,100324.66
2023-04-23T16:45:53.538Z,100327.28
2023-04-23T16:48:57.637Z,100331.97
2023-04-23T16:52:03.845Z,100326.69
2023-04-23T16:55:09.318Z,100317.44
2023-04-23T16:58:13.175Z,100326.50
2023-04-23T17:01:17.884Z,100319.97
2023-04-23T17:04:21.793Z,100322.38
2023-04-23T17:07:26.934Z,100316.56
2023-04-23T17:10:31.113Z,100323.53
2023-04-23T17:13:35.254Z,100334.78
2023-04-23T17:16:39.240Z,100366.91
2023-04-23T17:19:43.150Z,100386.38
2023-04-23T17:22:48.145Z,100360.38
2023-04-23T17:25:51.660Z,100363.09
2023-04-23T17:28:55.333Z,100341.91
2023-04-23T17:31:58.943Z,100340.81
2023-04-23T17:35:10.017Z,100327.44
2023-04-23T17:38:20.575Z,100316.53
2023-04-23T17:41:24.326Z,100296.72
2023-04-23T17:44:27.893Z,100274.56
2023-04-23T17:47:31.508Z,100267.22
2023-04-23T17:50:35.289Z,100260.16
2023-04-23T17:53:42.071Z,100267.03
2023-04-23T17:56:48.452Z,100265.16
2023-04-23T17:59:51.992Z,100261.69
2023-04-23T18:02:56.364Z,100268.03
2023-04-23T18:06:00.144Z,100264.03
2023-04-23T18:09:05.162Z,100264.88
2023-04-23T18:12:08.796Z,100256.84
2023-04-23T18:15:12.826Z,100252.06
2023-04-23T18:18:16.441Z,100254.44
2023-04-23T18:21:19.979Z,100270.72
2023-04-23T18:24:24.924Z,100280.91
2023-04-23T18:27:28.438Z,100297.50
2023-04-23T18:30:32.415Z,100284.84
2023-04-23T18:33:43.475Z,100275.03
2023-04-23T18:36:55.384Z,100259.59
2023-04-23T18:40:01.039Z,100246.63
2023-04-23T18:43:04.716Z,100238.53
2023-04-23T18:46:08.375Z,100228.94
2023-04-23T18:49:46.635Z,100219.50
2023-04-23T18:52:50.171Z,100220.66
2023-04-23T18:55:55.071Z,100217.03
2023-04-23T18:58:59.267Z,100209.59
2023-04-23T19:02:03.798Z,100227.84
2023-04-23T19:05:09.109Z,100222.75
2023-04-23T19:08:12.681Z,100213.47
2023-04-23T19:11:17.705Z,100208.56
2023-04-23T19:14:21.261Z,100208.38
2023-04-23T19:17:24.901Z,100210.69
2023-04-23T19:20:31.052Z,100209.59
2023-04-23T19:23:34.695Z,100214.03
2023-04-23T19:26:39.664Z,100217.41
2023-04-23T19:29:43.446Z,100216.50
2023-04-23T19:32:47.278Z,100213.78
2023-04-23T19:35:51.233Z,100200.81
2023-04-23T19:38:54.834Z,100200.00
2023-04-23T19:41:59.810Z,100194.75
2023-04-23T19:45:03.641Z,100198.41
2023-04-23T19:48:08.329Z,100188.66
2023-04-23T19:51:12.089Z,100184.78
2023-04-23T19:54:15.632Z,100183.00
2023-04-23T19:57:22.328Z,100178.50
2023-04-23T20:00:30.770Z,100174.72
2023-04-23T20:03:35.593Z,100173.34
2023-04-23T20:06:39.297Z,100191.03
2023-04-23T20:09:44.466Z,100195.38
2023-04-23T20:12:49.643Z,100194.47
2023-04-23T20:15:55.173Z,100195.41
2023-04-23T20:18:58.771Z,100198.50
2023-04-23T20:22:03.008Z,100195.88
2023-04-23T20:25:08.044Z,100192.53
2023-04-23T20:28:13.875Z,100199.03
2023-04-23T20:31:20.052Z,100185.25
2023-04-23T20:34:24.707Z,100187.97
2023-04-23T20:37:28.495Z,100188.28
2023-04-23T20:40:34.464Z,100187.13
2023-04-23T20:43:39.839Z,100183.53
2023-04-23T20:46:45.271Z,100189.50
2023-04-23T20:49:48.787Z,100199.38
2023-04-23T20:52:52.368Z,100191.44
2023-04-23T20:55:56.586Z,100183.53
2023-04-23T20:59:01.810Z,100183.41
2023-04-23T21:02:06.613Z,100171.97
2023-04-23T21:05:13.623Z,100165.63
2023-04-23T21:08:17.279Z,100146.47
2023-04-23T21:11:22.135Z,100140.44
2023-04-23T21:14:27.083Z,100137.75
2023-04-23T21:17:30.689Z,100125.69
2023-04-23T21:20:34.279Z,100121.91
2023-04-23T21:23:37.883Z,100117.50
2023-04-23T21:26:41.490Z,100102.72
2023-04-23T21:29:47.069Z,100108.91
2023-04-23T21:32:52.088Z,100106.22
2023-04-23T21:35:55.708Z,100102.91
2023-04-23T21:38:59.203Z,100121.44
2023-04-23T21:42:02.784Z,100105.53
2023-04-23T21:45:14.362Z,100108.31
2023-04-23T21:48:17.955Z,100104.88
2023-04-23T21:51:22.528Z,100098.34
2023-04-23T21:54:26.097Z,100086.00
2023-04-23T21:57:29.644Z,100086.00
2023-04-23T22:00:34.596Z,100082.66
2023-04-23T22:03:42.568Z,100077.25
2023-04-23T22:06:47.168Z,100064.91
2023-04-23T22:09:51.124Z,100065.72
2023-04-23T22:12:54.800Z,100051.59
2023-04-23T22:16:00.311Z,100056.16
2023-04-23T22:19:03.870Z,100042.16
2023-04-23T22:22:08.304Z,100049.50
2023-04-23T22:25:12.927Z,100038.34
2023-04-23T22:28:16.531Z,100028.19
2023-04-23T22:31:21.502Z,100024.03
2023-04-23T22:34:25.675Z,100012.06
2023-04-23T22:37:29.530Z,100015.09
2023-04-23T22:40:33.096Z,100011.69
2023-04-23T22:43:36.580Z,99997.31
2023-04-23T22:46:41.544Z,99993.31
2023-04-23T22:49:45.800Z,100010.06
2023-04-23T22:52:49.292Z,100006.16
2023-04-23T22:55:52.863Z,99999.13
2023-04-23T22:58:56.430Z,100000.19
2023-04-23T23:02:01.297Z,99993.63
2023-04-23T23:05:05.202Z,99996.19
2023-04-23T23:08:08.678Z,99987.53
2023-04-23T23:11:12.373Z,99997.88
2023-04-23T23:14:16.905Z,99987.75
2023-04-23T23:17:22.236Z,99982.75
2023-04-23T23:20:26.435Z,99988.13
2023-04-23T23:23:30.104Z,99979.72
2023-04-23T23:26:33.664Z,99982.41
2023-04-23T23:29:37.147Z,99983.63
2023-04-23T23:32:42.086Z,99990.56
2023-04-23T23:35:45.705Z,99983.75
2023-04-23T23:38:50.842Z,99979.06
2023-04-23T23:41:54.349Z,99985.19
2023-04-23T23:44:57.913Z,99981.03
2023-04-23T23:48:05.633Z,99978.72
2023-04-23T23:51:09.357Z,99973.03
2023-04-23T23:54:12.855Z,99962.56
2023-04-23T23:57:16.722Z,99967.00
